Time;durP1;ratioP1;P1;durP2;ratioP2;P2;SDS_P1;SDS_P2;PMS_P1;PMS_P2;Temp;Humidity;BMP_temperature;BMP_pressure;BME280_temperature;BME280_humidity;BME280_pressure;Samples;Min_cycle;Max_cycle;Signal;HPM_P1;HPM_P2
2022/05/26 00:01:13;;;;;;;2.47;1.10;;;9.50;97.20;;;;;;5052148;28;20028;-68
2022/05/26 00:03:41;;;;;;;5.88;1.30;;;9.50;97.20;;;;;;5053429;28;20111;-69
2022/05/26 00:06:09;;;;;;;3.10;1.30;;;9.60;97.20;;;;;;5052650;28;20095;-68
2022/05/26 00:08:39;;;;;;;4.50;1.38;;;9.60;97.20;;;;;;5054955;28;20036;-68
2022/05/26 00:11:09;;;;;;;3.60;1.30;;;9.50;97.10;;;;;;5066662;28;20032;-68
2022/05/26 00:13:35;;;;;;;3.40;1.40;;;9.40;97.30;;;;;;5061888;28;20032;-68
2022/05/26 00:16:01;;;;;;;2.65;1.30;;;9.40;97.40;;;;;;5058060;28;20112;-68
2022/05/26 00:18:27;;;;;;;2.70;1.20;;;9.40;97.30;;;;;;5051380;28;20094;-69
2022/05/26 00:20:53;;;;;;;3.10;1.27;;;9.40;97.30;;;;;;5054134;28;20036;-69
2022/05/26 00:23:21;;;;;;;3.83;1.20;;;9.40;97.30;;;;;;5061677;28;20107;-70
2022/05/26 00:25:47;;;;;;;2.40;1.17;;;9.40;97.40;;;;;;5057775;28;20049;-69
2022/05/26 00:28:13;;;;;;;2.20;1.23;;;9.40;97.30;;;;;;5046299;28;20060;-69
2022/05/26 00:30:39;;;;;;;6.10;1.40;;;9.40;97.30;;;;;;5054487;28;20417;-69
2022/05/26 00:33:07;;;;;;;5.28;1.58;;;9.30;97.30;;;;;;5051035;28;20052;-69
2022/05/26 00:35:36;;;;;;;4.72;1.20;;;9.40;97.40;;;;;;5058299;28;20431;-69
2022/05/26 00:38:06;;;;;;;3.00;1.20;;;9.30;97.30;;;;;;5057337;28;20025;-68
2022/05/26 00:40:36;;;;;;;3.05;1.30;;;9.30;97.20;;;;;;5058696;28;20471;-68
2022/05/26 00:43:04;;;;;;;3.47;1.40;;;9.20;97.20;;;;;;5063404;28;20405;-69
2022/05/26 00:46:16;;;;;;;2.83;1.10;;;9.30;97.20;;;;;;5057251;28;20028;-69
2022/05/26 00:49:02;;;;;;;3.80;1.27;;;9.30;97.30;;;;;;5038799;28;20037;-68
2022/05/26 00:51:32;;;;;;;4.85;1.45;;;9.40;97.30;;;;;;5075055;28;20028;-69
2022/05/26 00:54:00;;;;;;;4.22;1.40;;;9.40;97.40;;;;;;5049395;28;20036;-68
2022/05/26 00:56:51;;;;;;;2.90;1.35;;;9.40;97.30;;;;;;5037756;28;20029;-69
2022/05/26 00:59:37;;;;;;;2.85;1.20;;;9.40;97.40;;;;;;5060238;28;20115;-69
2022/05/26 01:02:03;;;;;;;3.25;1.20;;;9.30;97.40;;;;;;5056719;28;20407;-69
2022/05/26 01:04:35;;;;;;;3.80;1.33;;;9.20;97.10;;;;;;5055395;28;20084;-69
2022/05/26 01:07:12;;;;;;;2.95;1.30;;;9.20;97.30;;;;;;5056038;28;20032;-69
2022/05/26 01:09:41;;;;;;;3.55;1.30;;;9.10;97.10;;;;;;5061541;28;20025;-68
2022/05/26 01:12:16;;;;;;;2.72;1.30;;;9.10;97.20;;;;;;5065720;28;20055;-70
2022/05/26 01:14:48;;;;;;;3.05;1.40;;;9.10;97.10;;;;;;5060787;28;20021;-68
2022/05/26 01:17:34;;;;;;;2.35;1.20;;;9.00;96.90;;;;;;5055599;28;20032;-69
2022/05/26 01:20:39;;;;;;;2.25;1.35;;;9.20;97.20;;;;;;5059197;28;20462;-69
2022/05/26 01:23:44;;;;;;;3.42;1.20;;;9.20;97.20;;;;;;5042274;28;20037;-69
2022/05/26 01:26:31;;;;;;;3.13;1.40;;;9.20;97.20;;;;;;5028868;28;20033;-68
2022/05/26 01:29:11;;;;;;;3.42;1.38;;;9.20;97.20;;;;;;5005831;28;20634;-69
2022/05/26 01:31:41;;;;;;;4.03;1.42;;;9.20;97.10;;;;;;5041909;28;20037;-69
2022/05/26 01:34:22;;;;;;;2.58;1.25;;;9.40;97.60;;;;;;5051210;28;20048;-69
2022/05/26 01:37:09;;;;;;;3.53;1.33;;;9.40;97.40;;;;;;5055902;28;20420;-69
2022/05/26 01:39:55;;;;;;;2.55;1.10;;;9.40;97.60;;;;;;5057330;28;20335;-69
2022/05/26 01:42:26;;;;;;;5.80;1.52;;;9.30;97.30;;;;;;5057674;28;20302;-69
2022/05/26 01:44:54;;;;;;;4.47;1.50;;;9.30;97.40;;;;;;5057200;28;20071;-69
2022/05/26 01:47:49;;;;;;;4.82;1.20;;;9.30;97.50;;;;;;5061774;28;20401;-69
2022/05/26 01:50:21;;;;;;;;;;;9.30;97.60;;;;;;5070168;28;20025;-69
2022/05/26 01:52:58;;;;;;;3.13;1.33;;;9.30;97.50;;;;;;5056061;28;20303;-69
2022/05/26 01:55:49;;;;;;;2.80;1.50;;;9.20;97.40;;;;;;5053864;28;20033;-69
2022/05/26 01:58:35;;;;;;;2.70;1.23;;;9.20;97.30;;;;;;5054193;28;20037;-69
2022/05/26 02:01:06;;;;;;;4.28;1.40;;;9.10;97.00;;;;;;5066942;28;20047;-68
2022/05/26 02:03:36;;;;;;;5.30;1.40;;;9.10;97.30;;;;;;5052895;28;20100;-69
2022/05/26 02:06:28;;;;;;;4.32;1.33;;;9.20;97.40;;;;;;5056227;28;20383;-69
2022/05/26 02:08:56;;;;;;;2.38;1.30;;;9.10;97.30;;;;;;5049042;28;20041;-69
2022/05/26 02:11:23;;;;;;;6.35;1.60;;;9.10;97.40;;;;;;5057906;28;20050;-69
2022/05/26 02:14:00;;;;;;;4.00;1.38;;;9.00;97.20;;;;;;5054305;28;20352;-69
2022/05/26 02:16:34;;;;;;;3.45;1.42;;;9.00;97.00;;;;;;5049139;28;20029;-69
2022/05/26 02:19:12;;;;;;;4.32;1.38;;;9.00;97.10;;;;;;5058795;28;20301;-69
2022/05/26 02:21:46;;;;;;;3.08;1.58;;;8.90;97.20;;;;;;5055879;28;20021;-69
2022/05/26 02:24:25;;;;;;;2.50;1.50;;;8.90;96.90;;;;;;5051889;28;20334;-68
2022/05/26 02:26:51;;;;;;;2.88;1.30;;;8.90;97.10;;;;;;5053537;28;20040;-69
2022/05/26 02:32:31;;;;;;;3.38;1.45;;;9.00;97.50;;;;;;5014503;28;20369;-69
2022/05/26 02:35:04;;;;;;;2.85;1.40;;;9.00;97.30;;;;;;5035991;28;20333;-69
2022/05/26 02:37:32;;;;;;;4.25;1.48;;;9.00;97.00;;;;;;5046653;28;20033;-69
2022/05/26 02:39:58;;;;;;;3.50;1.52;;;9.00;97.30;;;;;;5064633;28;20368;-69
2022/05/26 02:42:26;;;;;;;2.42;1.30;;;8.90;97.10;;;;;;5054794;28;20078;-69
2022/05/26 02:44:53;;;;;;;4.65;1.40;;;8.80;96.80;;;;;;5055314;28;20033;-69
2022/05/26 02:47:40;;;;;;;4.40;1.50;;;8.80;96.80;;;;;;5052663;28;20028;-69
2022/05/26 02:50:32;;;;;;;4.28;1.77;;;8.80;97.00;;;;;;5055159;28;20492;-68
2022/05/26 02:53:30;;;;;;;2.70;1.38;;;8.80;96.50;;;;;;5043127;28;20095;-69
2022/05/26 02:56:29;;;;;;;2.88;1.20;;;8.80;96.70;;;;;;5050004;28;20029;-67
2022/05/26 02:59:11;;;;;;;3.97;1.38;;;9.00;97.20;;;;;;5050743;28;20072;-68
2022/05/26 03:02:19;;;;;;;3.88;1.50;;;9.00;97.20;;;;;;5047660;28;20045;-68
2022/05/26 03:04:49;;;;;;;3.58;1.20;;;8.90;97.10;;;;;;5012606;28;20393;-68
2022/05/26 03:07:20;;;;;;;3.17;1.20;;;8.90;97.10;;;;;;5014954;28;20417;-68
2022/05/26 03:09:46;;;;;;;3.78;1.67;;;9.10;97.40;;;;;;5035742;28;20047;-68
2022/05/26 03:12:28;;;;;;;2.10;1.17;;;9.30;97.70;;;;;;5074975;28;20036;-68
2022/05/26 03:14:55;;;;;;;2.38;1.20;;;9.40;97.70;;;;;;5052937;28;20032;-69
2022/05/26 03:17:20;;;;;;;2.75;1.27;;;9.50;97.90;;;;;;5043610;28;20029;-68
2022/05/26 03:19:49;;;;;;;4.63;1.35;;;9.50;97.80;;;;;;5064089;28;20093;-68
2022/05/26 03:22:15;;;;;;;2.38;1.27;;;9.30;97.70;;;;;;5063457;28;20024;-67
2022/05/26 03:24:42;;;;;;;2.72;1.30;;;9.20;97.50;;;;;;5063106;28;20401;-68
2022/05/26 03:27:08;;;;;;;2.53;1.30;;;9.10;97.30;;;;;;5038588;28;20053;-68
2022/05/26 03:29:34;;;;;;;4.57;1.40;;;9.00;97.40;;;;;;5044664;28;20027;-68
2022/05/26 03:32:00;;;;;;;2.70;1.30;;;9.00;97.40;;;;;;5052368;28;20413;-68
2022/05/26 03:42:44;;;;;;;2.97;1.30;;;9.00;97.40;;;;;;5054260;28;20070;-67
2022/05/26 03:45:10;;;;;;;2.80;1.33;;;8.90;97.20;;;;;;5057697;28;20067;-66
2022/05/26 03:47:36;;;;;;;5.15;1.40;;;8.80;96.90;;;;;;5075554;28;20071;-66
2022/05/26 03:50:02;;;;;;;5.45;1.58;;;8.80;96.60;;;;;;5046078;28;20045;-67
2022/05/26 03:52:31;;;;;;;4.05;1.50;;;8.80;96.70;;;;;;5054932;28;20029;-66
2022/05/26 03:54:56;;;;;;;4.15;1.33;;;9.00;97.00;;;;;;5051605;28;20099;-69
2022/05/26 03:57:27;;;;;;;5.78;1.42;;;9.30;98.00;;;;;;5053862;28;20115;-69
2022/05/26 03:59:56;;;;;;;3.45;1.30;;;9.70;98.00;;;;;;5054971;28;20051;-69
2022/05/26 04:02:22;;;;;;;4.28;1.30;;;9.90;98.00;;;;;;5054965;28;20397;-68
2022/05/26 04:04:48;;;;;;;3.72;1.42;;;10.00;97.90;;;;;;5050558;28;20409;-68
2022/05/26 04:07:13;;;;;;;3.47;1.33;;;10.10;97.90;;;;;;5049083;28;20024;-69
2022/05/26 04:09:40;;;;;;;3.25;1.23;;;10.20;97.90;;;;;;5059297;28;20417;-69
2022/05/26 04:12:07;;;;;;;2.85;1.20;;;10.40;97.60;;;;;;5054851;28;20017;-68
2022/05/26 04:14:33;;;;;;;5.18;1.30;;;10.40;97.60;;;;;;5052298;28;20020;-68
2022/05/26 04:17:02;;;;;;;4.35;1.40;;;10.60;97.30;;;;;;5048317;28;20056;-68
2022/05/26 04:19:35;;;;;;;5.00;1.50;;;10.80;97.10;;;;;;5048624;28;20425;-68
2022/05/26 04:22:17;;;;;;;4.80;1.33;;;10.90;97.10;;;;;;5049834;28;20321;-68
2022/05/26 04:24:53;;;;;;;3.05;1.10;;;11.00;96.70;;;;;;5052547;28;20013;-68
2022/05/26 04:27:21;;;;;;;3.88;1.20;;;11.30;95.70;;;;;;5053638;28;20029;-68
2022/05/26 04:29:47;;;;;;;3.95;1.42;;;11.50;94.60;;;;;;5065146;28;20029;-68
2022/05/26 04:32:15;;;;;;;5.90;1.40;;;11.70;93.70;;;;;;5070230;28;20298;-68
2022/05/26 04:34:45;;;;;;;6.50;1.70;;;11.90;93.60;;;;;;5048546;28;20037;-68
2022/05/26 04:37:25;;;;;;;5.30;1.90;;;11.90;93.20;;;;;;5049042;28;20028;-68
2022/05/26 04:39:53;;;;;;;5.60;1.63;;;12.00;92.80;;;;;;5049230;28;20033;-68
2022/05/26 04:42:19;;;;;;;5.82;2.13;;;12.00;92.00;;;;;;5053512;28;20119;-68
2022/05/26 04:44:45;;;;;;;6.85;2.25;;;12.10;92.00;;;;;;5055184;28;20155;-68
2022/05/26 04:47:12;;;;;;;6.35;2.35;;;12.10;92.20;;;;;;5051583;28;20428;-68
2022/05/26 04:49:39;;;;;;;5.93;1.80;;;12.10;91.90;;;;;;5052199;28;20033;-68
2022/05/26 04:52:06;;;;;;;5.65;1.90;;;12.10;91.80;;;;;;5046254;28;20328;-68
2022/05/26 04:54:32;;;;;;;4.28;1.85;;;12.10;91.60;;;;;;5053074;28;20021;-67
2022/05/26 04:56:58;;;;;;;4.47;1.60;;;12.00;92.10;;;;;;5057268;28;20553;-68
2022/05/26 04:59:25;;;;;;;6.53;2.00;;;12.10;91.80;;;;;;5053088;28;20108;-68
2022/05/26 05:01:51;;;;;;;6.90;1.90;;;12.10;91.60;;;;;;5052667;28;20087;-68
2022/05/26 05:04:17;;;;;;;7.82;2.00;;;12.20;91.50;;;;;;5052906;28;20373;-68
2022/05/26 05:06:43;;;;;;;5.57;2.20;;;12.20;91.10;;;;;;5065549;28;20020;-68
2022/05/26 05:09:09;;;;;;;5.97;2.25;;;12.30;90.90;;;;;;5060816;28;20083;-68
2022/05/26 05:11:38;;;;;;;6.38;2.33;;;12.40;90.70;;;;;;5059481;28;20033;-68
2022/05/26 05:14:04;;;;;;;7.18;2.10;;;12.50;90.40;;;;;;5047574;28;20075;-69
2022/05/26 05:16:37;;;;;;;6.38;2.20;;;12.60;90.10;;;;;;5050313;28;20036;-68
2022/05/26 05:19:03;;;;;;;4.78;1.80;;;12.70;90.10;;;;;;5054331;28;20052;-68
2022/05/26 05:21:52;;;;;;;3.72;1.52;;;12.70;90.10;;;;;;5056161;28;20033;-68
2022/05/26 05:24:26;;;;;;;2.83;1.13;;;12.80;89.90;;;;;;5067090;28;20047;-68
2022/05/26 05:26:59;;;;;;;4.00;1.20;;;12.90;89.80;;;;;;5055988;28;20036;-68
2022/05/26 05:29:36;;;;;;;4.50;1.50;;;12.90;89.70;;;;;;5055476;28;20087;-68
2022/05/26 05:32:12;;;;;;;5.50;1.95;;;13.00;88.90;;;;;;5056566;28;20036;-68
2022/05/26 05:34:43;;;;;;;4.78;1.20;;;13.10;89.20;;;;;;5051649;28;20025;-68
2022/05/26 05:37:09;;;;;;;2.63;1.25;;;13.20;88.30;;;;;;5054262;28;20032;-68
2022/05/26 05:39:35;;;;;;;7.07;1.58;;;13.30;87.80;;;;;;5053473;28;20028;-68
2022/05/26 05:42:01;;;;;;;3.30;1.10;;;13.40;87.40;;;;;;5062244;28;20417;-68
2022/05/26 05:44:27;;;;;;;4.00;1.10;;;13.40;87.00;;;;;;5062614;28;20086;-68
2022/05/26 05:46:57;;;;;;;4.38;1.30;;;13.50;87.20;;;;;;5059493;28;20033;-68
2022/05/26 05:49:26;;;;;;;3.95;1.15;;;13.60;86.60;;;;;;5046002;28;20016;-68
2022/05/26 05:51:53;;;;;;;2.53;1.10;;;13.60;86.60;;;;;;5053871;28;20075;-68
2022/05/26 05:54:19;;;;;;;2.40;1.08;;;13.70;86.90;;;;;;5064315;28;20060;-68
2022/05/26 05:56:46;;;;;;;3.53;1.58;;;13.80;87.00;;;;;;5053948;28;20029;-68
2022/05/26 05:59:17;;;;;;;4.32;1.15;;;13.80;86.40;;;;;;5060142;28;20024;-68
2022/05/26 06:01:45;;;;;;;4.22;0.98;;;13.90;86.60;;;;;;5054877;28;20094;-68
2022/05/26 06:04:11;;;;;;;5.50;1.50;;;14.00;86.00;;;;;;5053076;28;20029;-68
2022/05/26 06:06:43;;;;;;;2.58;1.00;;;14.00;85.70;;;;;;5045420;28;20441;-68
2022/05/26 06:09:13;;;;;;;5.82;1.20;;;14.10;85.10;;;;;;5053782;28;20033;-68
2022/05/26 06:11:45;;;;;;;4.45;1.17;;;14.10;84.80;;;;;;5052117;28;20025;-68
2022/05/26 06:14:11;;;;;;;2.70;1.20;;;14.10;85.00;;;;;;5048631;28;20793;-68
2022/05/26 06:16:44;;;;;;;3.60;1.13;;;14.00;84.40;;;;;;5052039;28;20063;-69
2022/05/26 06:19:15;;;;;;;3.80;1.10;;;14.10;84.90;;;;;;5054057;28;20056;-68
2022/05/26 06:21:41;;;;;;;8.23;1.38;;;14.10;85.30;;;;;;5053477;28;20037;-68
2022/05/26 06:24:09;;;;;;;3.10;1.20;;;14.10;85.00;;;;;;5051312;28;20414;-68
2022/05/26 06:26:34;;;;;;;2.35;1.17;;;14.20;85.20;;;;;;5039314;28;20100;-68
2022/05/26 06:37:13;;;;;;;4.28;1.30;;;14.30;83.90;;;;;;5053487;28;20048;-68
2022/05/26 06:37:18;;;;;;;;;;;14.40;84.10;;;;;;5048638;28;20167;-67
2022/05/26 06:39:45;;;;;;;2.90;1.20;;;14.50;83.70;;;;;;5057102;28;19953;-67
2022/05/26 06:42:11;;;;;;;3.05;1.08;;;14.50;83.50;;;;;;5057192;28;20107;-67
2022/05/26 06:44:47;;;;;;;4.95;1.10;;;14.50;83.40;;;;;;5059482;28;20076;-68
2022/05/26 06:47:18;;;;;;;5.18;1.33;;;14.40;83.50;;;;;;5051229;28;20026;-68
2022/05/26 06:49:45;;;;;;;3.28;1.50;;;14.50;83.70;;;;;;5051284;28;20029;-69
2022/05/26 06:52:12;;;;;;;3.53;0.98;;;14.60;83.90;;;;;;5056226;28;20399;-69
2022/05/26 06:54:41;;;;;;;5.55;1.13;;;14.70;83.40;;;;;;5049236;28;20037;-69
2022/05/26 06:57:08;;;;;;;3.28;1.00;;;14.80;84.10;;;;;;5049129;28;20429;-68
2022/05/26 06:59:40;;;;;;;2.53;1.00;;;14.90;82.80;;;;;;5053483;28;20128;-68
2022/05/26 07:02:10;;;;;;;2.65;1.10;;;15.00;82.50;;;;;;5053951;28;20036;-69
2022/05/26 07:04:37;;;;;;;3.70;1.13;;;15.10;82.90;;;;;;5040583;28;20026;-69
2022/05/26 07:07:03;;;;;;;3.60;1.30;;;15.10;81.20;;;;;;5042639;28;20032;-68
2022/05/26 07:09:32;;;;;;;3.58;0.90;;;15.20;79.80;;;;;;5045248;28;20111;-68
2022/05/26 07:11:58;;;;;;;4.28;1.67;;;15.30;78.10;;;;;;5045781;28;20032;-68
2022/05/26 07:14:26;;;;;;;3.10;0.98;;;15.30;79.40;;;;;;5035454;28;20504;-68
2022/05/26 07:16:52;;;;;;;4.05;1.10;;;15.40;78.20;;;;;;5036382;28;20037;-68
2022/05/26 07:19:18;;;;;;;3.05;1.10;;;15.40;78.00;;;;;;5035963;28;20055;-67
2022/05/26 07:21:48;;;;;;;4.75;1.10;;;15.50;78.90;;;;;;5031413;28;20033;-68
2022/05/26 07:24:19;;;;;;;3.15;0.95;;;15.80;78.00;;;;;;5033873;28;20033;-68
2022/05/26 07:26:48;;;;;;;4.88;0.98;;;16.20;77.30;;;;;;5034408;28;20424;-68
2022/05/26 07:29:18;;;;;;;3.17;1.00;;;16.90;75.50;;;;;;5031866;28;20029;-68
2022/05/26 07:31:46;;;;;;;2.47;0.95;;;17.70;73.10;;;;;;5030850;28;20029;-68
2022/05/26 07:34:12;;;;;;;3.85;0.80;;;18.30;71.30;;;;;;5030233;28;20037;-68
2022/05/26 07:42:17;;;;;;;2.25;0.88;;;18.90;70.20;;;;;;5031448;28;20045;-68
2022/05/26 07:44:45;;;;;;;2.85;0.70;;;18.90;69.90;;;;;;5031311;28;20509;-68
2022/05/26 07:47:11;;;;;;;2.60;0.80;;;19.20;70.10;;;;;;5030446;28;20118;-68
2022/05/26 07:49:43;;;;;;;2.45;0.77;;;19.40;69.20;;;;;;5030023;28;20029;-68
2022/05/26 07:52:10;;;;;;;7.85;0.90;;;19.50;69.20;;;;;;5031986;28;20060;-68
2022/05/26 07:54:37;;;;;;;2.47;0.80;;;19.60;70.00;;;;;;5031551;28;20041;-68
2022/05/26 07:57:04;;;;;;;3.10;0.90;;;19.80;68.60;;;;;;5040329;28;20079;-68
2022/05/26 07:59:30;;;;;;;3.08;0.80;;;19.00;70.90;;;;;;5042358;28;20120;-68
2022/05/26 08:01:57;;;;;;;3.53;0.85;;;19.10;70.70;;;;;;5037777;28;20111;-68
2022/05/26 08:04:22;;;;;;;3.05;0.90;;;19.70;69.30;;;;;;5036456;28;20029;-68
2022/05/26 08:06:49;;;;;;;4.38;0.80;;;19.20;69.80;;;;;;5041508;28;20615;-68
2022/05/26 08:09:18;;;;;;;3.35;0.98;;;18.70;71.20;;;;;;5035662;28;20031;-68
2022/05/26 08:11:44;;;;;;;2.13;0.70;;;18.50;72.40;;;;;;5040659;28;20460;-68
2022/05/26 08:14:11;;;;;;;2.70;0.80;;;18.50;72.60;;;;;;5035275;28;20040;-68
2022/05/26 08:16:37;;;;;;;2.47;0.90;;;18.80;72.00;;;;;;5031166;28;20032;-67
2022/05/26 08:19:04;;;;;;;3.75;0.90;;;19.10;71.50;;;;;;5032809;28;20094;-67
2022/05/26 08:21:31;;;;;;;1.45;0.60;;;19.20;69.70;;;;;;5033714;28;20036;-67
2022/05/26 08:23:57;;;;;;;2.38;0.80;;;19.10;69.40;;;;;;5033068;28;20022;-66
2022/05/26 08:26:23;;;;;;;1.20;0.60;;;19.10;69.30;;;;;;5035434;28;20033;-67
2022/05/26 08:28:49;;;;;;;1.90;0.63;;;19.20;70.30;;;;;;5034751;28;20116;-67
2022/05/26 08:31:15;;;;;;;3.95;1.00;;;19.40;69.30;;;;;;5040934;28;20033;-68
2022/05/26 08:33:41;;;;;;;2.17;0.93;;;19.20;70.20;;;;;;5033207;28;20036;-67
2022/05/26 08:36:14;;;;;;;3.50;0.70;;;19.00;69.60;;;;;;5031353;28;20032;-68
2022/05/26 08:38:40;;;;;;;3.65;0.75;;;19.30;70.30;;;;;;5029150;28;20029;-67
2022/05/26 08:41:10;;;;;;;1.25;0.68;;;19.80;68.50;;;;;;5027199;28;20134;-68
2022/05/26 08:43:41;;;;;;;1.77;0.70;;;19.80;68.60;;;;;;5031210;28;20033;-69
2022/05/26 08:46:09;;;;;;;2.65;0.80;;;20.20;67.50;;;;;;5027171;28;20116;-68
2022/05/26 08:49:03;;;;;;;3.00;0.80;;;20.80;67.10;;;;;;5030159;28;20377;-68
2022/05/26 08:52:03;;;;;;;3.60;0.90;;;20.90;67.20;;;;;;5031638;28;20211;-68
2022/05/26 08:54:47;;;;;;;3.30;0.80;;;20.40;66.40;;;;;;5029568;28;20091;-68
2022/05/26 08:57:20;;;;;;;3.55;1.02;;;20.20;67.10;;;;;;5035826;28;20117;-68
2022/05/26 08:59:46;;;;;;;1.65;0.82;;;20.00;67.70;;;;;;5042416;28;20043;-68
2022/05/26 09:02:31;;;;;;;2.35;0.73;;;19.60;66.70;;;;;;5057774;28;20314;-68
2022/05/26 09:04:56;;;;;;;;;;;19.20;68.60;;;;;;5055396;28;20028;-68
2022/05/26 09:13:24;;;;;;;2.83;0.75;;;19.00;69.10;;;;;;5033776;28;20098;-67
2022/05/26 09:15:50;;;;;;;2.90;0.60;;;19.40;68.70;;;;;;5032496;28;20026;-68
2022/05/26 09:18:19;;;;;;;1.60;0.70;;;19.50;67.40;;;;;;5031410;28;20048;-68
2022/05/26 09:20:50;;;;;;;1.73;0.73;;;19.40;68.00;;;;;;5031875;28;20029;-68
2022/05/26 09:23:24;;;;;;;1.75;0.68;;;19.50;67.10;;;;;;5033002;28;20122;-68
2022/05/26 09:25:56;;;;;;;3.97;0.77;;;19.40;67.90;;;;;;5032487;28;20074;-68
2022/05/26 09:28:31;;;;;;;3.05;0.95;;;19.60;67.90;;;;;;5033857;28;20055;-67
2022/05/26 09:31:25;;;;;;;3.45;0.60;;;19.60;67.90;;;;;;5032736;28;20058;-67
2022/05/26 09:34:17;;;;;;;2.53;1.13;;;19.40;69.40;;;;;;5032640;28;20028;-67
2022/05/26 09:37:00;;;;;;;3.20;0.90;;;19.40;70.20;;;;;;5032742;28;20065;-67
2022/05/26 09:39:30;;;;;;;2.45;0.82;;;19.10;70.40;;;;;;5031211;28;20098;-67
2022/05/26 09:42:01;;;;;;;2.05;0.80;;;19.00;70.50;;;;;;5030653;28;20079;-67
2022/05/26 09:44:52;;;;;;;1.70;0.70;;;19.10;70.40;;;;;;5033289;28;20025;-68
2022/05/26 09:47:39;;;;;;;1.83;0.55;;;19.10;70.20;;;;;;5031979;28;20021;-68
2022/05/26 09:50:35;;;;;;;2.22;0.70;;;19.00;70.00;;;;;;5032882;28;20029;-68
2022/05/26 09:53:04;;;;;;;1.90;0.70;;;18.60;71.60;;;;;;5000023;28;20091;-68
2022/05/26 09:55:50;;;;;;;1.23;0.60;;;18.70;71.40;;;;;;5030965;28;20460;-67
2022/05/26 09:58:36;;;;;;;3.85;0.90;;;19.30;71.20;;;;;;5030199;28;20116;-66
2022/05/26 10:01:05;;;;;;;4.65;0.90;;;19.80;69.70;;;;;;5038059;28;20050;-68
2022/05/26 10:03:58;;;;;;;3.55;0.82;;;19.50;70.00;;;;;;5029458;28;20369;-67
2022/05/26 10:06:45;;;;;;;2.63;0.77;;;19.70;69.20;;;;;;5029880;28;20031;-67
2022/05/26 10:09:23;;;;;;;3.25;0.68;;;19.80;69.00;;;;;;5027649;28;20439;-67
2022/05/26 10:12:08;;;;;;;1.90;0.70;;;19.90;68.50;;;;;;5029728;28;20036;-67
2022/05/26 10:14:52;;;;;;;2.15;0.85;;;20.40;68.00;;;;;;5028549;28;20051;-68
2022/05/26 10:17:42;;;;;;;3.00;0.70;;;20.80;65.80;;;;;;5032875;28;21530;-67
2022/05/26 10:20:14;;;;;;;1.80;0.68;;;20.70;67.10;;;;;;5032550;28;20119;-67
2022/05/26 10:22:47;;;;;;;2.75;0.65;;;20.60;68.10;;;;;;5033688;28;20033;-67
2022/05/26 10:25:36;;;;;;;2.07;0.60;;;20.10;67.90;;;;;;5032574;28;20480;-66
2022/05/26 10:28:36;;;;;;;3.55;0.95;;;20.10;68.60;;;;;;5032148;28;20052;-66
2022/05/26 10:31:04;;;;;;;2.20;0.77;;;20.00;68.90;;;;;;5032815;28;20028;-67
2022/05/26 10:33:48;;;;;;;2.33;0.70;;;19.80;67.70;;;;;;5033192;28;20041;-67
2022/05/26 10:36:26;;;;;;;1.25;0.70;;;20.00;68.10;;;;;;5031968;28;21149;-67
2022/05/26 10:39:13;;;;;;;1.40;0.70;;;19.90;68.70;;;;;;5031173;28;20064;-67
2022/05/26 10:41:42;;;;;;;2.25;0.65;;;20.30;68.70;;;;;;5031576;28;20070;-67
2022/05/26 10:44:34;;;;;;;3.28;0.90;;;21.50;65.80;;;;;;5030446;28;21363;-68
2022/05/26 10:47:21;;;;;;;3.10;0.80;;;21.60;64.20;;;;;;5031093;28;20128;-68
2022/05/26 10:49:53;;;;;;;2.72;0.70;;;21.50;65.20;;;;;;5031222;28;20040;-67
2022/05/26 10:52:26;;;;;;;1.98;0.70;;;20.60;66.50;;;;;;5030971;28;20028;-67
2022/05/26 10:55:09;;;;;;;1.45;0.65;;;20.70;66.20;;;;;;5029170;28;20028;-67
2022/05/26 10:57:54;;;;;;;3.42;0.90;;;21.00;67.00;;;;;;5036111;28;20084;-67
2022/05/26 11:00:28;;;;;;;3.08;0.73;;;21.00;68.50;;;;;;5047735;28;20045;-67
2022/05/26 11:02:53;;;;;;;2.70;0.75;;;20.80;67.90;;;;;;5036704;28;20033;-66
2022/05/26 11:05:33;;;;;;;2.20;0.88;;;20.70;68.50;;;;;;5028797;28;20681;-67
2022/05/26 11:08:24;;;;;;;6.25;2.47;;;20.90;68.50;;;;;;5030180;28;20033;-67
2022/05/26 11:11:04;;;;;;;3.40;0.88;;;20.70;68.90;;;;;;5027227;28;20037;-67
2022/05/26 11:13:55;;;;;;;2.50;0.90;;;20.50;70.30;;;;;;5029307;28;20317;-68
2022/05/26 11:19:23;;;;;;;1.50;0.70;;;20.90;67.80;;;;;;5029189;28;20082;-67
2022/05/26 11:21:51;;;;;;;3.90;1.00;;;20.60;69.60;;;;;;5031766;28;20048;-68
2022/05/26 11:24:17;;;;;;;2.80;0.93;;;20.60;69.30;;;;;;5029881;28;20034;-67
2022/05/26 11:27:23;;;;;;;5.40;1.15;;;20.70;69.70;;;;;;5030270;28;20036;-67
2022/05/26 11:30:05;;;;;;;4.43;1.33;;;20.40;70.70;;;;;;5028476;28;20034;-67
2022/05/26 11:38:28;;;;;;;1.80;0.80;;;21.00;69.90;;;;;;5032777;28;20527;-67
2022/05/26 11:41:00;;;;;;;3.00;0.80;;;21.70;65.80;;;;;;5028858;28;20156;-68
2022/05/26 11:43:29;;;;;;;3.90;0.93;;;21.60;64.20;;;;;;5035621;28;20025;-68
2022/05/26 11:45:57;;;;;;;1.85;0.80;;;21.40;65.40;;;;;;5029729;28;20033;-68
2022/05/26 11:48:32;;;;;;;2.70;0.80;;;21.30;66.40;;;;;;5029435;28;20030;-68
2022/05/26 11:51:22;;;;;;;3.45;0.80;;;21.30;67.60;;;;;;5029821;28;20379;-68
2022/05/26 11:53:49;;;;;;;3.75;0.90;;;21.40;67.50;;;;;;5023542;28;20048;-68
2022/05/26 11:56:24;;;;;;;3.35;0.95;;;21.10;67.60;;;;;;5028589;28;20127;-68
2022/05/26 11:59:28;;;;;;;2.97;0.82;;;21.20;66.70;;;;;;5027835;28;20045;-68
2022/05/26 12:02:08;;;;;;;1.73;0.70;;;21.10;66.80;;;;;;5029464;28;20029;-68
2022/05/26 12:04:41;;;;;;;2.78;0.70;;;21.10;67.20;;;;;;5027008;28;20106;-69
2022/05/26 12:07:21;;;;;;;3.10;1.08;;;21.30;66.80;;;;;;5032990;28;20171;-68
2022/05/26 12:10:00;;;;;;;5.18;0.90;;;20.80;67.00;;;;;;5028642;28;20056;-68
2022/05/26 12:12:26;;;;;;;3.95;0.88;;;20.40;68.20;;;;;;5029762;28;20059;-69
2022/05/26 12:14:57;;;;;;;2.92;0.90;;;19.80;70.00;;;;;;5027865;28;20491;-71
2022/05/26 12:17:51;;;;;;;4.35;1.42;;;19.50;69.00;;;;;;5030287;28;20029;-69
2022/05/26 12:20:24;;;;;;;2.85;0.90;;;19.40;70.60;;;;;;5028264;28;20032;-68
2022/05/26 12:22:49;;;;;;;3.40;0.73;;;19.70;69.80;;;;;;5027513;28;21017;-68
2022/05/26 12:25:15;;;;;;;2.53;0.80;;;19.80;69.70;;;;;;5026269;28;20045;-68
2022/05/26 12:27:56;;;;;;;1.95;0.80;;;20.10;70.20;;;;;;5032067;28;20111;-68
2022/05/26 12:30:45;;;;;;;1.88;0.70;;;20.30;68.10;;;;;;5034193;28;20028;-68
2022/05/26 12:33:18;;;;;;;2.38;0.90;;;20.40;68.50;;;;;;5034354;28;20032;-68
2022/05/26 12:36:29;;;;;;;1.98;0.90;;;20.40;68.60;;;;;;5038172;28;20036;-68
2022/05/26 12:39:14;;;;;;;4.53;0.85;;;20.50;69.00;;;;;;5033929;28;20037;-67
2022/05/26 12:41:49;;;;;;;3.22;1.05;;;20.90;67.70;;;;;;5038296;28;20029;-68
2022/05/26 12:44:50;;;;;;;4.78;0.80;;;20.80;67.80;;;;;;5033641;28;20030;-68
2022/05/26 12:47:44;;;;;;;3.25;0.88;;;20.60;68.00;;;;;;5018144;28;20071;-68
2022/05/26 12:50:22;;;;;;;4.15;0.90;;;20.60;69.00;;;;;;5035544;28;20041;-67
2022/05/26 12:53:05;;;;;;;2.63;0.80;;;20.90;67.50;;;;;;5033777;28;20033;-67
2022/05/26 12:55:58;;;;;;;5.43;0.90;;;21.60;66.80;;;;;;5033825;28;20051;-67
2022/05/26 12:58:28;;;;;;;3.80;1.20;;;21.50;65.90;;;;;;5034879;28;20039;-67
2022/05/26 13:00:54;;;;;;;3.58;0.90;;;20.80;66.50;;;;;;5034024;28;20068;-68
2022/05/26 13:03:36;;;;;;;5.35;0.80;;;20.90;68.10;;;;;;5033551;28;20286;-67
2022/05/26 13:06:27;;;;;;;1.50;0.70;;;21.60;66.00;;;;;;5034605;28;20017;-67
2022/05/26 13:09:17;;;;;;;3.55;0.90;;;22.10;65.40;;;;;;5034438;28;20112;-68
2022/05/26 13:11:53;;;;;;;2.42;1.00;;;21.60;66.60;;;;;;5048073;28;20105;-68
2022/05/26 13:14:44;;;;;;;2.13;0.80;;;21.50;66.10;;;;;;5032098;28;20606;-68
2022/05/26 13:17:09;;;;;;;3.40;1.00;;;21.10;67.00;;;;;;5033939;28;20036;-68
2022/05/26 13:19:49;;;;;;;2.25;0.90;;;21.90;65.40;;;;;;5032801;28;20086;-69
2022/05/26 13:22:32;;;;;;;2.70;0.90;;;21.70;64.80;;;;;;5032687;28;20100;-67
2022/05/26 13:25:16;;;;;;;2.00;0.77;;;21.10;65.90;;;;;;5030682;28;20029;-68
2022/05/26 13:27:45;;;;;;;3.40;0.93;;;20.70;68.00;;;;;;5032182;28;20079;-67
2022/05/26 13:33:07;;;;;;;2.40;1.02;;;19.80;70.90;;;;;;5032294;28;20039;-68
2022/05/26 13:35:39;;;;;;;4.20;1.00;;;19.80;70.30;;;;;;5031953;28;20048;-67
2022/05/26 13:38:17;;;;;;;3.03;1.00;;;19.90;69.90;;;;;;5034141;28;20036;-67
2022/05/26 13:40:45;;;;;;;2.40;0.98;;;20.00;70.30;;;;;;5029850;28;20115;-68
2022/05/26 13:43:12;;;;;;;4.32;1.20;;;20.40;69.30;;;;;;5035495;28;20036;-67
2022/05/26 13:45:41;;;;;;;3.13;0.90;;;20.70;69.30;;;;;;5033084;28;20170;-68
2022/05/26 13:48:25;;;;;;;3.72;0.90;;;21.20;68.30;;;;;;5032349;28;20029;-67
2022/05/26 13:50:53;;;;;;;2.72;1.00;;;21.10;67.50;;;;;;5032090;28;20131;-67
2022/05/26 13:53:20;;;;;;;3.80;1.10;;;21.30;67.30;;;;;;5033140;28;20044;-67
2022/05/26 13:55:48;;;;;;;2.92;0.90;;;21.40;66.70;;;;;;5034599;28;20390;-67
2022/05/26 13:58:17;;;;;;;3.97;1.10;;;21.20;67.40;;;;;;5033130;28;20072;-67
2022/05/26 14:00:46;;;;;;;3.15;1.02;;;20.70;68.70;;;;;;5031808;28;20049;-68
2022/05/26 14:03:23;;;;;;;4.57;0.80;;;20.70;70.10;;;;;;5035106;28;20041;-68
2022/05/26 14:06:33;;;;;;;4.13;0.90;;;21.10;69.30;;;;;;5032099;28;20111;-68